Time;durP1;ratioP1;P1;durP2;ratioP2;P2;SDS_P1;SDS_P2;PMS_P1;PMS_P2;Temp;Humidity;BMP_temperature;BMP_pressure;BME280_temperature;BME280_humidity;BME280_pressure;Samples;Min_cycle;Max_cycle;Signal;HPM_P1;HPM_P2
2023/04/27 03:00:33;;;;;;;11.38;5.93;;;1.70;99.90;;;;;;5908756;23;20111;-78
2023/04/27 03:02:58;;;;;;;16.50;6.75;;;1.60;99.90;;;;;;4977030;28;20117;-78
2023/04/27 03:05:27;;;;;;;16.65;6.38;;;1.60;99.90;;;;;;4977003;28;20081;-79
2023/04/27 03:07:52;;;;;;;15.55;6.40;;;1.70;99.90;;;;;;4994401;28;20413;-77
2023/04/27 03:10:18;;;;;;;14.65;7.18;;;1.70;99.90;;;;;;4976577;28;20038;-78
2023/04/27 03:12:44;;;;;;;15.27;6.72;;;1.70;99.90;;;;;;4994320;28;20054;-78
2023/04/27 03:15:09;;;;;;;13.98;6.18;;;1.70;99.90;;;;;;4976815;28;20042;-79
2023/04/27 03:17:35;;;;;;;13.30;6.43;;;1.70;99.90;;;;;;4977484;28;20395;-78
2023/04/27 03:20:03;;;;;;;13.95;6.55;;;1.70;99.90;;;;;;4976971;28;20042;-77
2023/04/27 03:22:28;;;;;;;11.82;6.28;;;1.60;99.90;;;;;;4994271;28;20039;-77
2023/04/27 03:24:54;;;;;;;14.07;6.63;;;1.60;99.90;;;;;;4976473;28;20478;-79
2023/04/27 03:27:19;;;;;;;16.15;6.80;;;1.60;99.90;;;;;;4976579;28;20085;-78
2023/04/27 03:29:45;;;;;;;13.23;6.53;;;1.60;99.90;;;;;;4976518;28;20121;-78
2023/04/27 03:32:11;;;;;;;15.05;6.20;;;1.60;99.90;;;;;;4993380;28;20034;-79
2023/04/27 03:34:36;;;;;;;21.10;7.80;;;1.50;99.90;;;;;;4993951;28;20038;-79
2023/04/27 03:37:02;;;;;;;13.95;6.15;;;1.50;99.90;;;;;;4976661;28;20129;-77
2023/04/27 03:39:28;;;;;;;16.80;6.65;;;1.50;99.90;;;;;;4976362;28;20129;-78
2023/04/27 03:41:53;;;;;;;15.82;7.22;;;1.50;99.90;;;;;;4977027;28;20129;-78
2023/04/27 03:44:19;;;;;;;12.57;6.85;;;1.50;99.90;;;;;;4976844;28;20084;-78
2023/04/27 03:46:44;;;;;;;13.52;6.85;;;1.50;99.90;;;;;;4976173;28;20050;-78
2023/04/27 03:49:10;;;;;;;14.30;6.93;;;1.50;99.90;;;;;;4976355;28;20081;-79
2023/04/27 03:51:38;;;;;;;14.85;7.13;;;1.50;99.90;;;;;;4960347;28;20042;-78
2023/04/27 03:54:04;;;;;;;12.07;6.65;;;1.50;99.90;;;;;;4976353;28;20580;-77
2023/04/27 03:56:30;;;;;;;14.73;6.28;;;1.50;99.90;;;;;;4959928;28;20042;-79
2023/04/27 03:58:55;;;;;;;12.55;6.07;;;1.50;99.90;;;;;;4976352;28;20039;-79
2023/04/27 04:01:21;;;;;;;11.68;6.82;;;1.50;99.90;;;;;;4993616;28;20505;-79
2023/04/27 04:03:47;;;;;;;16.58;6.50;;;1.50;99.90;;;;;;4976185;28;20065;-78
2023/04/27 04:06:12;;;;;;;16.33;6.90;;;1.50;99.90;;;;;;4975905;28;20034;-78
2023/04/27 04:08:38;;;;;;;12.15;5.63;;;1.50;99.90;;;;;;4975871;28;20046;-77
2023/04/27 04:11:04;;;;;;;14.43;6.22;;;1.50;99.90;;;;;;4975960;28;20030;-80
2023/04/27 04:13:29;;;;;;;15.48;7.10;;;1.40;99.90;;;;;;4975791;28;20124;-78
2023/04/27 04:16:01;;;;;;;13.07;6.18;;;1.40;99.90;;;;;;4993391;28;20137;-78
2023/04/27 04:18:27;;;;;;;11.95;6.25;;;1.30;99.90;;;;;;4975893;28;20511;-78
2023/04/27 04:20:52;;;;;;;12.40;6.32;;;1.30;99.90;;;;;;4975284;28;20130;-78
2023/04/27 04:23:18;;;;;;;15.82;6.30;;;1.30;99.90;;;;;;4975872;28;20117;-79
2023/04/27 04:25:46;;;;;;;13.30;6.90;;;1.30;99.90;;;;;;4975740;28;20105;-79
2023/04/27 04:28:12;;;;;;;16.50;7.00;;;1.30;99.90;;;;;;4976035;28;20042;-78
2023/04/27 04:30:38;;;;;;;17.75;7.30;;;1.30;99.90;;;;;;4993439;28;20053;-78
2023/04/27 04:33:04;;;;;;;15.73;6.53;;;1.30;99.90;;;;;;4976608;28;20034;-79
2023/04/27 04:35:31;;;;;;;21.50;8.90;;;1.30;99.90;;;;;;4975940;28;20042;-78
2023/04/27 04:37:58;;;;;;;16.73;7.10;;;1.30;99.90;;;;;;4975702;28;20057;-79
2023/04/27 04:40:24;;;;;;;14.23;6.90;;;1.20;99.90;;;;;;4959584;28;20044;-78
2023/04/27 04:42:50;;;;;;;15.13;6.28;;;1.20;99.90;;;;;;4991729;28;20129;-79
2023/04/27 04:45:15;;;;;;;14.05;6.70;;;1.20;99.90;;;;;;4993595;28;20034;-77
2023/04/27 04:47:41;;;;;;;13.40;7.13;;;1.10;99.90;;;;;;4976658;28;20161;-78
2023/04/27 04:50:09;;;;;;;14.85;7.40;;;1.20;99.90;;;;;;4975513;28;20110;-79
2023/04/27 04:52:36;;;;;;;13.65;6.85;;;1.20;99.90;;;;;;4975574;28;20048;-78
2023/04/27 04:55:02;;;;;;;14.05;6.93;;;1.10;99.90;;;;;;4959500;28;20121;-79
2023/04/27 04:57:29;;;;;;;14.45;7.45;;;1.10;99.90;;;;;;4993314;28;20046;-78
2023/04/27 04:59:55;;;;;;;15.05;7.32;;;1.10;99.90;;;;;;4975488;28;20066;-78
2023/04/27 05:02:21;;;;;;;15.35;7.28;;;1.10;99.90;;;;;;4992761;28;20050;-79
2023/04/27 05:04:46;;;;;;;16.20;7.95;;;1.10;99.90;;;;;;4975393;28;20074;-78
2023/04/27 05:07:12;;;;;;;14.77;7.65;;;1.10;99.90;;;;;;4975744;28;20037;-78
2023/04/27 05:09:38;;;;;;;16.88;7.97;;;1.10;99.90;;;;;;4993419;28;20417;-79
2023/04/27 05:12:04;;;;;;;17.20;8.25;;;1.20;99.90;;;;;;4975294;28;20405;-80
2023/04/27 05:14:30;;;;;;;17.25;7.72;;;1.20;99.90;;;;;;4975931;28;20042;-78
2023/04/27 05:16:55;;;;;;;19.38;8.43;;;1.20;99.90;;;;;;4992950;28;20386;-78
2023/04/27 05:19:21;;;;;;;20.13;7.97;;;1.30;99.90;;;;;;4975479;28;20486;-78
2023/04/27 05:21:47;;;;;;;18.95;8.25;;;1.30;99.90;;;;;;4959486;28;20125;-78
2023/04/27 05:24:12;;;;;;;17.15;7.90;;;1.30;99.90;;;;;;4975200;28;20042;-79
2023/04/27 05:26:38;;;;;;;15.65;7.38;;;1.40;99.90;;;;;;4975331;28;20049;-80
2023/04/27 05:29:04;;;;;;;13.00;7.43;;;1.40;99.90;;;;;;4959607;28;20137;-80
2023/04/27 05:31:30;;;;;;;14.77;7.55;;;1.50;99.90;;;;;;4975170;28;20066;-78
2023/04/27 05:33:55;;;;;;;17.67;8.32;;;1.50;99.90;;;;;;4995093;28;20043;-80
2023/04/27 05:36:21;;;;;;;20.05;7.70;;;1.60;99.90;;;;;;4978508;28;20050;-78
2023/04/27 05:38:47;;;;;;;15.85;7.47;;;1.60;99.90;;;;;;4978524;28;20038;-79
2023/04/27 05:41:12;;;;;;;16.60;7.57;;;1.70;99.90;;;;;;4978444;28;20088;-80
2023/04/27 05:44:01;;;;;;;19.83;8.82;;;1.70;99.90;;;;;;4995701;28;20113;-79
2023/04/27 05:46:30;;;;;;;19.00;7.40;;;1.80;99.90;;;;;;4978839;28;20050;-79
2023/04/27 05:48:55;;;;;;;16.77;7.82;;;1.90;99.90;;;;;;4996522;28;20045;-78
2023/04/27 05:51:21;;;;;;;15.95;7.97;;;1.90;99.90;;;;;;4978692;28;20073;-78
2023/04/27 05:53:47;;;;;;;15.73;8.52;;;2.00;99.90;;;;;;4978967;28;20046;-80
2023/04/27 05:56:13;;;;;;;16.85;8.25;;;2.10;99.90;;;;;;4978477;28;20046;-78
2023/04/27 05:58:38;;;;;;;17.35;7.93;;;2.20;99.90;;;;;;4978209;28;20081;-79
2023/04/27 06:01:04;;;;;;;16.27;7.60;;;2.20;99.90;;;;;;4995747;28;20046;-80
2023/04/27 06:03:31;;;;;;;15.63;7.72;;;2.30;99.90;;;;;;4994395;28;20093;-80
2023/04/27 06:05:59;;;;;;;16.98;7.65;;;2.50;99.90;;;;;;4994321;28;20054;-78
2023/04/27 06:08:25;;;;;;;15.95;7.85;;;2.60;99.90;;;;;;4994341;28;20085;-79
2023/04/27 06:10:51;;;;;;;17.95;7.78;;;2.60;99.90;;;;;;4994148;28;20045;-80
2023/04/27 06:13:17;;;;;;;14.50;7.22;;;2.80;99.90;;;;;;4994167;28;20038;-79
2023/04/27 06:15:43;;;;;;;14.40;7.18;;;2.80;99.90;;;;;;4977899;28;20054;-78
2023/04/27 06:18:09;;;;;;;15.82;7.10;;;2.90;99.90;;;;;;4995651;28;20118;-79
2023/04/27 06:20:35;;;;;;;15.25;7.80;;;3.00;99.90;;;;;;4994135;28;20125;-79
2023/04/27 06:23:01;;;;;;;15.88;6.65;;;3.10;99.90;;;;;;4994126;28;20043;-78
2023/04/27 06:25:27;;;;;;;13.63;6.43;;;3.20;99.90;;;;;;4995521;28;20393;-79
2023/04/27 06:27:56;;;;;;;11.73;6.32;;;3.30;99.90;;;;;;4994214;28;20038;-79
2023/04/27 06:30:23;;;;;;;18.05;6.60;;;3.40;99.90;;;;;;4993985;28;20073;-80
2023/04/27 06:32:50;;;;;;;11.23;6.10;;;3.50;99.90;;;;;;4994032;28;20080;-78
2023/04/27 06:35:16;;;;;;;13.80;6.07;;;3.60;99.90;;;;;;4995605;28;20042;-77
2023/04/27 06:37:41;;;;;;;14.80;6.03;;;3.70;99.90;;;;;;4993778;28;20042;-80
2023/04/27 06:40:07;;;;;;;10.77;5.18;;;3.80;99.90;;;;;;4995094;28;20132;-79
2023/04/27 06:42:33;;;;;;;11.23;5.15;;;3.90;99.90;;;;;;4993658;28;20122;-76
2023/04/27 06:45:00;;;;;;;10.95;4.97;;;4.00;99.90;;;;;;4994658;28;20067;-80
2023/04/27 06:47:26;;;;;;;13.77;5.07;;;4.20;99.90;;;;;;4995281;28;20057;-77
2023/04/27 06:49:51;;;;;;;8.00;4.38;;;4.30;99.90;;;;;;4994995;28;20042;-78
2023/04/27 06:52:18;;;;;;;10.45;4.75;;;4.40;99.90;;;;;;4977283;28;20048;-79
2023/04/27 06:54:43;;;;;;;8.88;4.82;;;4.60;99.90;;;;;;4993851;28;20058;-78
2023/04/27 06:57:09;;;;;;;10.85;4.32;;;4.70;99.90;;;;;;4994673;28;20428;-79
2023/04/27 06:59:35;;;;;;;11.70;4.35;;;4.80;99.90;;;;;;4993350;28;20041;-78
2023/04/27 07:02:00;;;;;;;11.05;4.45;;;4.90;99.90;;;;;;4993148;28;20042;-78
2023/04/27 07:04:26;;;;;;;11.15;4.47;;;4.90;99.90;;;;;;4994361;28;20046;-78
2023/04/27 07:06:52;;;;;;;16.73;4.43;;;5.00;99.90;;;;;;4993512;28;20050;-79
2023/04/27 07:09:18;;;;;;;7.88;4.07;;;5.10;99.90;;;;;;4977149;28;20545;-78
2023/04/27 07:11:43;;;;;;;9.27;4.10;;;5.20;99.90;;;;;;4994278;28;20030;-78
2023/04/27 07:14:09;;;;;;;9.93;3.90;;;5.30;99.90;;;;;;4993810;28;20042;-79
2023/04/27 07:16:35;;;;;;;12.43;4.43;;;5.40;99.90;;;;;;4994741;28;20445;-79
2023/04/27 07:19:01;;;;;;;9.02;4.32;;;5.50;99.90;;;;;;4994380;28;20034;-80
2023/04/27 07:21:27;;;;;;;12.05;3.70;;;5.60;99.90;;;;;;4994496;28;20037;-80
2023/04/27 07:23:53;;;;;;;7.38;3.40;;;5.70;99.90;;;;;;4993034;28;20038;-78
2023/04/27 07:26:20;;;;;;;15.00;4.93;;;5.80;99.90;;;;;;4992939;28;20050;-80
2023/04/27 07:28:46;;;;;;;8.65;4.20;;;5.90;99.90;;;;;;4993194;28;20048;-80
2023/04/27 07:31:12;;;;;;;11.85;3.92;;;6.00;99.90;;;;;;4993109;28;20121;-78
2023/04/27 07:33:37;;;;;;;10.48;3.80;;;6.10;99.90;;;;;;4993845;28;20095;-77
2023/04/27 07:36:04;;;;;;;8.88;3.40;;;6.20;99.90;;;;;;4993972;28;20518;-77
2023/04/27 07:38:30;;;;;;;9.40;3.17;;;6.30;99.90;;;;;;4994567;28;20046;-80
2023/04/27 07:41:00;;;;;;;6.53;3.20;;;6.40;99.90;;;;;;4992757;28;20042;-78
2023/04/27 07:43:26;;;;;;;9.52;4.20;;;6.50;99.90;;;;;;4989414;28;20030;-78
2023/04/27 07:45:53;;;;;;;6.15;3.05;;;6.60;99.90;;;;;;4985277;28;20048;-79
2023/04/27 07:48:19;;;;;;;7.28;3.08;;;6.70;99.90;;;;;;4980497;28;20046;-78
2023/04/27 07:50:45;;;;;;;8.65;3.58;;;6.80;99.90;;;;;;4977672;28;20097;-77
2023/04/27 07:53:11;;;;;;;6.47;3.00;;;6.90;99.90;;;;;;4977420;28;20052;-78
2023/04/27 07:55:37;;;;;;;5.93;2.35;;;6.90;99.90;;;;;;4994778;28;20113;-77
2023/04/27 07:58:03;;;;;;;11.57;3.50;;;7.00;99.90;;;;;;5002913;28;20465;-79
2023/04/27 08:00:29;;;;;;;7.72;2.50;;;7.10;99.90;;;;;;5001998;28;20549;-79
2023/04/27 08:02:55;;;;;;;7.90;3.33;;;7.20;99.90;;;;;;4987843;28;20046;-78
2023/04/27 08:05:21;;;;;;;8.88;2.90;;;7.20;99.90;;;;;;4990470;28;20045;-78
2023/04/27 08:07:46;;;;;;;6.57;2.70;;;7.30;99.90;;;;;;5007733;28;20041;-79
2023/04/27 08:10:13;;;;;;;4.03;2.40;;;7.40;99.90;;;;;;5002428;28;20057;-78
2023/04/27 08:12:39;;;;;;;9.98;2.80;;;7.50;99.90;;;;;;5003128;28;20034;-79
2023/04/27 08:15:06;;;;;;;7.93;3.33;;;7.60;99.90;;;;;;4984408;28;20046;-79
2023/04/27 08:17:32;;;;;;;4.82;2.40;;;7.70;99.90;;;;;;4977022;28;20414;-78
2023/04/27 08:19:58;;;;;;;5.95;2.70;;;7.80;99.90;;;;;;4977027;28;20081;-76
2023/04/27 08:22:23;;;;;;;4.53;2.38;;;7.90;99.90;;;;;;4976937;28;20165;-77
2023/04/27 08:24:49;;;;;;;7.00;2.40;;;7.90;99.90;;;;;;4994904;28;20433;-77
2023/04/27 08:27:15;;;;;;;6.18;2.53;;;8.10;99.90;;;;;;4993497;28;20482;-77
2023/04/27 08:29:46;;;;;;;5.68;2.20;;;8.90;99.90;;;;;;4992527;28;20046;-77
2023/04/27 08:32:11;;;;;;;5.00;2.00;;;9.80;99.90;;;;;;4993532;28;20085;-78
2023/04/27 08:34:37;;;;;;;8.98;2.47;;;10.50;99.90;;;;;;4992663;28;20426;-77
2023/04/27 08:37:03;;;;;;;5.60;2.17;;;10.80;99.90;;;;;;4992961;28;20217;-78
2023/04/27 08:39:29;;;;;;;6.55;3.10;;;11.10;99.90;;;;;;4983688;28;20042;-77
2023/04/27 08:41:54;;;;;;;7.90;2.22;;;11.10;99.90;;;;;;4994277;28;20042;-79
2023/04/27 08:44:20;;;;;;;3.33;2.17;;;11.60;99.90;;;;;;4977221;28;20089;-78
2023/04/27 08:46:46;;;;;;;6.65;2.30;;;11.70;99.90;;;;;;4976843;28;20084;-79
2023/04/27 08:49:11;;;;;;;8.63;2.40;;;11.60;99.90;;;;;;4976575;28;20409;-78
2023/04/27 08:51:37;;;;;;;6.90;2.40;;;11.30;99.90;;;;;;4977347;28;20042;-79
2023/04/27 08:54:03;;;;;;;6.70;2.50;;;11.10;99.90;;;;;;4976880;28;20057;-79
2023/04/27 08:56:30;;;;;;;9.23;2.20;;;11.30;99.90;;;;;;4993625;28;20038;-79
2023/04/27 08:58:57;;;;;;;5.72;2.10;;;11.80;99.90;;;;;;4992950;28;20054;-78
2023/04/27 09:01:24;;;;;;;5.15;2.08;;;12.10;99.90;;;;;;4976561;28;20374;-80
2023/04/27 09:03:59;;;;;;;5.75;2.20;;;12.30;99.90;;;;;;4976331;28;20117;-78
2023/04/27 09:06:31;;;;;;;5.72;2.10;;;12.40;99.90;;;;;;4976445;28;20046;-79
2023/04/27 09:08:58;;;;;;;5.30;2.13;;;12.30;99.90;;;;;;4996974;28;20037;-79
2023/04/27 09:11:35;;;;;;;6.28;2.25;;;12.10;99.90;;;;;;4981486;28;20045;-78
2023/04/27 09:14:20;;;;;;;4.05;2.00;;;12.00;99.90;;;;;;4997485;28;20474;-78
2023/04/27 09:16:56;;;;;;;5.53;2.00;;;11.80;99.90;;;;;;4997268;28;20566;-78
2023/04/27 09:19:25;;;;;;;6.05;2.20;;;11.70;99.90;;;;;;4979365;28;20038;-78
2023/04/27 09:22:06;;;;;;;7.65;2.92;;;11.90;99.90;;;;;;4979267;28;20125;-78
2023/04/27 09:24:32;;;;;;;5.45;2.45;;;12.20;99.90;;;;;;4979387;28;20157;-78
2023/04/27 09:26:58;;;;;;;7.97;3.08;;;12.50;99.90;;;;;;4997050;28;20046;-79
2023/04/27 09:29:37;;;;;;;5.40;2.25;;;12.70;99.90;;;;;;4979552;28;20097;-77
2023/04/27 09:32:17;;;;;;;5.82;2.03;;;12.70;99.90;;;;;;4996879;28;20049;-78
2023/04/27 09:34:44;;;;;;;6.47;2.17;;;12.40;99.90;;;;;;4997216;28;20114;-78
2023/04/27 09:37:09;;;;;;;6.03;2.10;;;12.20;99.90;;;;;;4978834;28;20494;-78
2023/04/27 09:39:35;;;;;;;5.72;2.35;;;12.10;99.90;;;;;;4996535;28;20113;-80
2023/04/27 09:42:03;;;;;;;4.88;2.10;;;11.90;99.90;;;;;;4996427;28;20122;-78
2023/04/27 09:44:30;;;;;;;5.43;2.03;;;11.90;99.90;;;;;;4978874;28;20060;-80
2023/04/27 09:46:58;;;;;;;5.38;2.58;;;12.00;99.90;;;;;;4979129;28;20049;-78
2023/04/27 09:49:24;;;;;;;6.47;2.30;;;12.20;99.90;;;;;;4978538;28;20042;-78
2023/04/27 09:51:53;;;;;;;4.88;2.20;;;12.80;99.90;;;;;;4995617;28;20514;-79
2023/04/27 09:54:21;;;;;;;5.75;3.03;;;13.50;99.90;;;;;;4976869;28;20049;-77
2023/04/27 09:57:25;;;;;;;6.82;2.63;;;13.90;96.70;;;;;;4994223;28;20061;-78
2023/04/27 09:59:56;;;;;;;9.10;3.20;;;13.70;94.40;;;;;;4981844;28;20138;-79
2023/04/27 10:02:23;;;;;;;6.05;2.50;;;13.30;93.70;;;;;;4996044;28;20494;-78
2023/04/27 10:05:13;;;;;;;7.35;3.10;;;13.20;93.40;;;;;;4995984;28;20057;-77
2023/04/27 10:07:40;;;;;;;7.95;3.65;;;13.30;92.50;;;;;;4978534;28;20046;-76
2023/04/27 10:10:14;;;;;;;9.18;3.30;;;13.60;93.60;;;;;;4978669;28;20069;-77
2023/04/27 10:12:40;;;;;;;8.02;3.00;;;13.80;93.60;;;;;;4996234;28;20042;-75
2023/04/27 10:15:14;;;;;;;7.90;3.40;;;13.80;92.70;;;;;;4995951;28;20042;-77
2023/04/27 10:17:48;;;;;;;7.53;3.77;;;13.90;92.20;;;;;;4995907;28;20130;-75
2023/04/27 10:20:14;;;;;;;7.68;3.97;;;13.60;89.50;;;;;;4977062;28;20121;-76
2023/04/27 10:22:43;;;;;;;9.10;3.72;;;13.50;90.80;;;;;;4995552;28;20117;-76
2023/04/27 10:25:27;;;;;;;7.53;3.67;;;13.60;92.80;;;;;;4978017;28;20046;-77
2023/04/27 10:28:00;;;;;;;6.57;3.40;;;13.50;93.00;;;;;;4995698;28;20160;-77
2023/04/27 10:30:34;;;;;;;8.85;4.55;;;13.30;92.70;;;;;;4978098;28;20042;-78
2023/04/27 10:33:06;;;;;;;9.38;4.10;;;13.10;92.40;;;;;;4978234;28;20141;-78
2023/04/27 10:35:36;;;;;;;8.00;3.90;;;13.00;92.80;;;;;;4995709;28;20060;-77
2023/04/27 10:38:20;;;;;;;9.60;3.75;;;13.00;93.50;;;;;;4995234;28;20511;-79
2023/04/27 10:40:55;;;;;;;10.18;4.60;;;13.00;93.30;;;;;;4995208;28;20093;-77
2023/04/27 10:43:25;;;;;;;11.98;4.60;;;12.90;92.40;;;;;;4995771;28;20066;-78
2023/04/27 10:45:51;;;;;;;11.75;4.90;;;12.80;92.80;;;;;;4996231;28;20479;-77
2023/04/27 10:48:17;;;;;;;10.73;5.07;;;12.70;93.30;;;;;;4977751;28;20133;-77
2023/04/27 10:50:43;;;;;;;7.78;4.80;;;12.70;92.50;;;;;;4977614;28;20050;-79
2023/04/27 10:53:10;;;;;;;15.15;5.43;;;12.90;92.70;;;;;;4977218;28;20117;-79
2023/04/27 10:55:36;;;;;;;8.70;4.68;;;13.10;92.20;;;;;;4975623;28;20057;-80
2023/04/27 10:58:02;;;;;;;13.52;5.38;;;13.20;92.10;;;;;;4976779;28;20432;-79
2023/04/27 11:00:31;;;;;;;10.20;4.70;;;13.20;92.80;;;;;;4976252;28;20042;-80
2023/04/27 11:03:09;;;;;;;9.77;5.10;;;13.50;93.90;;;;;;4976767;28;20126;-79
2023/04/27 11:05:35;;;;;;;11.07;5.07;;;13.60;91.60;;;;;;4976374;28;20054;-80
2023/04/27 11:08:08;;;;;;;9.85;5.50;;;13.80;93.40;;;;;;4977007;28;20045;-80
2023/04/27 11:10:37;;;;;;;8.73;4.45;;;13.90;93.00;;;;;;4995014;28;20042;-80
2023/04/27 11:13:22;;;;;;;11.75;6.35;;;14.10;92.70;;;;;;4977145;28;20042;-79
2023/04/27 11:15:56;;;;;;;8.13;4.72;;;14.20;92.10;;;;;;4977351;28;20054;-80
2023/04/27 11:18:25;;;;;;;9.70;4.38;;;14.10;91.50;;;;;;4977550;28;20042;-79
2023/04/27 11:20:54;;;;;;;10.85;4.32;;;14.00;92.50;;;;;;4994878;28;20046;-80
2023/04/27 11:23:36;;;;;;;9.52;4.60;;;14.00;92.00;;;;;;4977889;28;20046;-79
2023/04/27 11:26:13;;;;;;;9.43;4.45;;;14.10;91.60;;;;;;4961168;28;20066;-79
2023/04/27 11:28:43;;;;;;;8.30;4.93;;;14.40;91.10;;;;;;4977323;28;20114;-80
2023/04/27 11:31:09;;;;;;;8.60;4.80;;;14.40;90.30;;;;;;4994280;28;20045;-78
2023/04/27 11:33:36;;;;;;;10.25;4.50;;;14.50;90.00;;;;;;4977237;28;20050;-80
2023/04/27 11:36:02;;;;;;;10.73;4.65;;;14.70;91.20;;;;;;4977491;28;20092;-80
2023/04/27 11:38:34;;;;;;;9.35;4.53;;;14.90;91.90;;;;;;4976930;28;20081;-80
2023/04/27 11:41:05;;;;;;;7.88;4.30;;;15.10;92.40;;;;;;4993993;28;20074;-79
2023/04/27 11:43:31;;;;;;;9.63;4.57;;;15.30;88.30;;;;;;4976795;28;20058;-79
2023/04/27 11:45:57;;;;;;;8.05;4.22;;;15.00;89.60;;;;;;4976775;28;20490;-81
2023/04/27 11:48:24;;;;;;;6.80;4.47;;;14.90;89.50;;;;;;4994487;28;20034;-80
2023/04/27 11:50:52;;;;;;;8.85;4.38;;;14.80;89.70;;;;;;4976979;28;20438;-80
2023/04/27 11:53:31;;;;;;;8.88;4.47;;;14.90;90.30;;;;;;4976703;28;20050;-80
2023/04/27 11:56:00;;;;;;;10.27;4.45;;;15.20;88.90;;;;;;4976868;28;20053;-80
2023/04/27 11:58:28;;;;;;;9.10;4.28;;;15.30;90.10;;;;;;4977669;28;20093;-80
2023/04/27 12:00:56;;;;;;;11.20;4.30;;;15.20;86.50;;;;;;4993807;28;20237;-79
2023/04/27 12:03:22;;;;;;;8.02;4.00;;;15.30;88.50;;;;;;4976485;28;20039;-79
2023/04/27 12:05:50;;;;;;;6.88;4.00;;;15.50;85.80;;;;;;4976528;28;20053;-80
2023/04/27 12:08:16;;;;;;;8.48;4.13;;;15.20;85.80;;;;;;4976427;28;20050;-78
2023/04/27 12:10:42;;;;;;;8.38;3.90;;;14.80;83.50;;;;;;4993786;28;20042;-82
2023/04/27 12:13:07;;;;;;;8.27;3.97;;;14.60;85.30;;;;;;4994142;28;20363;-80
2023/04/27 12:15:33;;;;;;;9.60;4.45;;;14.70;83.50;;;;;;4975998;28;20122;-80
2023/04/27 12:17:59;;;;;;;9.18;4.45;;;14.60;85.30;;;;;;4976375;28;20154;-80
2023/04/27 12:20:24;;;;;;;8.90;4.65;;;14.40;85.20;;;;;;4976076;28;20046;-80
2023/04/27 12:22:50;;;;;;;8.32;4.10;;;14.30;83.70;;;;;;4976080;28;20433;-80
2023/04/27 12:25:17;;;;;;;7.70;3.85;;;13.90;83.40;;;;;;4976071;28;20082;-80
2023/04/27 12:27:46;;;;;;;8.65;3.92;;;13.80;85.10;;;;;;4993438;28;20089;-79
2023/04/27 12:30:12;;;;;;;9.52;4.30;;;13.80;83.80;;;;;;4976314;28;20039;-79
2023/04/27 12:32:38;;;;;;;11.25;4.30;;;13.80;86.60;;;;;;4976090;28;20560;-80
2023/04/27 12:35:05;;;;;;;6.65;4.35;;;13.90;86.90;;;;;;4975964;28;20150;-80
2023/04/27 12:37:31;;;;;;;8.10;3.92;;;14.20;85.10;;;;;;4975992;28;20046;-80
2023/04/27 12:39:56;;;;;;;8.10;4.47;;;14.50;87.90;;;;;;4976066;28;20045;-79
2023/04/27 12:42:23;;;;;;;7.15;4.00;;;14.80;88.20;;;;;;4993652;28;20056;-80
2023/04/27 12:44:50;;;;;;;6.82;4.22;;;15.00;88.90;;;;;;4979987;28;20060;-80
2023/04/27 12:47:16;;;;;;;7.05;4.15;;;15.00;87.90;;;;;;4998085;28;20409;-80
2023/04/27 12:49:42;;;;;;;9.38;4.22;;;14.80;88.10;;;;;;4979780;28;20505;-80
2023/04/27 12:52:08;;;;;;;5.18;3.83;;;14.80;90.00;;;;;;4979875;28;20038;-80
2023/04/27 12:54:35;;;;;;;6.38;3.47;;;14.70;89.80;;;;;;4980145;28;20044;-79
2023/04/27 12:57:04;;;;;;;5.93;3.60;;;14.60;90.10;;;;;;4997153;28;20042;-80
2023/04/27 12:59:37;;;;;;;7.18;3.80;;;14.60;90.50;;;;;;4997673;28;20149;-80
2023/04/27 13:02:03;;;;;;;8.25;3.80;;;14.60;90.10;;;;;;4979728;28;20129;-80
2023/04/27 13:04:30;;;;;;;8.60;4.85;;;14.50;90.20;;;;;;4979544;28;20145;-80
2023/04/27 13:06:59;;;;;;;8.65;4.18;;;14.60;90.40;;;;;;4979935;28;20122;-79
2023/04/27 13:09:26;;;;;;;9.00;4.30;;;14.60;90.40;;;;;;4979410;28;20049;-80
2023/04/27 13:11:53;;;;;;;6.88;3.63;;;14.60;90.10;;;;;;4979274;28;20093;-79
2023/04/27 13:14:18;;;;;;;7.45;4.43;;;14.60;90.30;;;;;;4996772;28;20077;-80
2023/04/27 13:16:44;;;;;;;12.82;4.60;;;14.70;90.40;;;;;;4979676;28;20050;-80
2023/04/27 13:19:10;;;;;;;8.35;3.67;;;14.60;85.70;;;;;;4979060;28;20042;-80
2023/04/27 13:21:36;;;;;;;7.00;3.90;;;14.50;87.70;;;;;;4979276;28;20057;-81
2023/04/27 13:24:02;;;;;;;7.43;4.05;;;14.40;88.50;;;;;;4979413;28;20398;-80
2023/04/27 13:26:27;;;;;;;7.97;4.38;;;14.50;89.30;;;;;;4996462;28;20047;-80
2023/04/27 13:28:53;;;;;;;7.68;4.00;;;14.50;89.50;;;;;;4979268;28;20084;-80
2023/04/27 13:31:19;;;;;;;8.18;4.18;;;14.50;87.70;;;;;;4979094;28;20038;-80
2023/04/27 13:33:44;;;;;;;7.35;4.57;;;14.40;87.00;;;;;;4979038;28;20043;-81
2023/04/27 13:36:11;;;;;;;9.38;4.38;;;14.10;84.90;;;;;;4996744;28;20101;-80
2023/04/27 13:38:37;;;;;;;10.40;4.00;;;14.00;86.20;;;;;;4979287;28;20042;-80
2023/04/27 13:41:03;;;;;;;8.15;4.00;;;13.90;86.80;;;;;;4979125;28;20049;-79
2023/04/27 13:43:30;;;;;;;8.85;4.40;;;13.90;88.00;;;;;;4996689;28;20133;-80
2023/04/27 13:46:02;;;;;;;6.90;3.65;;;13.90;88.00;;;;;;4996516;28;20038;-81
2023/04/27 13:48:29;;;;;;;7.15;4.38;;;13.90;87.20;;;;;;4979236;28;20080;-80
2023/04/27 13:50:55;;;;;;;9.43;4.22;;;13.90;87.60;;;;;;4996393;28;20092;-80
2023/04/27 13:53:24;;;;;;;10.30;4.63;;;13.90;86.00;;;;;;4978642;28;20046;-80
2023/04/27 13:55:51;;;;;;;7.22;4.07;;;13.90;86.00;;;;;;4996076;28;20053;-80
2023/04/27 13:58:17;;;;;;;8.68;4.15;;;13.90;88.10;;;;;;4996012;28;20043;-80
2023/04/27 14:00:42;;;;;;;10.27;4.93;;;13.90;88.80;;;;;;4978397;28;20048;-79
2023/04/27 14:03:08;;;;;;;8.43;4.60;;;14.00;86.10;;;;;;4978837;28;20042;-80
2023/04/27 14:05:34;;;;;;;6.07;3.92;;;14.00;87.90;;;;;;4962857;28;20050;-80
2023/04/27 14:07:59;;;;;;;8.32;4.35;;;14.10;88.50;;;;;;4996457;28;20042;-80
2023/04/27 14:10:25;;;;;;;6.63;3.80;;;14.10;88.60;;;;;;4995894;28;20034;-78
2023/04/27 14:12:50;;;;;;;8.70;4.30;;;14.10;89.60;;;;;;4978978;28;20045;-80
2023/04/27 14:15:16;;;;;;;7.57;4.38;;;14.20;90.10;;;;;;4978757;28;20129;-78
2023/04/27 14:17:42;;;;;;;8.55;4.10;;;14.30;90.60;;;;;;4978293;28;20042;-79
2023/04/27 14:20:08;;;;;;;8.85;3.85;;;14.50;91.10;;;;;;4978168;28;20407;-80
2023/04/27 14:22:34;;;;;;;6.93;3.65;;;14.50;91.00;;;;;;4978052;28;20129;-79
2023/04/27 14:25:00;;;;;;;8.15;3.83;;;14.50;90.50;;;;;;4995683;28;20085;-79
2023/04/27 14:27:26;;;;;;;6.30;3.83;;;14.50;90.40;;;;;;4978690;28;20124;-80
2023/04/27 14:29:51;;;;;;;7.07;3.90;;;14.50;90.20;;;;;;5000169;28;20038;-75
2023/04/27 14:32:17;;;;;;;5.95;3.90;;;14.40;90.00;;;;;;4993879;28;20062;-74
2023/04/27 14:34:43;;;;;;;8.05;4.38;;;14.40;89.80;;;;;;4992853;28;20050;-78
2023/04/27 14:37:09;;;;;;;7.53;4.25;;;14.40;90.40;;;;;;4979456;28;20050;-78
2023/04/27 14:39:35;;;;;;;8.27;4.00;;;14.40;90.50;;;;;;4980151;28;20050;-79
2023/04/27 14:42:01;;;;;;;7.80;4.18;;;14.40;90.60;;;;;;4978934;28;20049;-80
2023/04/27 14:44:26;;;;;;;8.65;4.28;;;14.40;90.50;;;;;;4995821;28;20046;-81
2023/04/27 14:46:52;;;;;;;7.10;3.42;;;14.30;90.50;;;;;;4995669;28;20034;-81
2023/04/27 14:49:18;;;;;;;10.10;4.40;;;14.30;90.70;;;;;;4995580;28;20371;-80
2023/04/27 14:51:44;;;;;;;9.98;3.97;;;14.30;90.90;;;;;;4977971;28;20073;-80
2023/04/27 14:54:10;;;;;;;9.32;5.43;;;14.20;90.30;;;;;;4978274;28;20196;-79
2023/04/27 14:56:35;;;;;;;11.68;4.85;;;14.10;90.20;;;;;;4995287;28;20050;-80
2023/04/27 14:59:01;;;;;;;6.97;3.92;;;14.00;90.10;;;;;;4962108;28;20046;-80
2023/04/27 15:01:27;;;;;;;7.32;4.32;;;14.00;90.10;;;;;;4961428;28;20553;-80
2023/04/27 15:03:55;;;;;;;11.23;4.57;;;14.00;90.50;;;;;;4977805;28;20054;-80
2023/04/27 15:06:21;;;;;;;8.25;4.40;;;14.10;91.10;;;;;;4960806;28;20430;-80
2023/04/27 15:08:47;;;;;;;9.13;3.80;;;14.10;91.50;;;;;;4994870;28;20038;-79
2023/04/27 15:11:12;;;;;;;7.25;4.25;;;14.10;91.90;;;;;;4993501;28;20121;-79
2023/04/27 15:13:38;;;;;;;6.22;4.03;;;14.10;92.20;;;;;;4995140;28;20121;-80
2023/04/27 15:16:05;;;;;;;8.05;4.32;;;14.20;92.40;;;;;;4986527;28;20121;-79
2023/04/27 15:18:31;;;;;;;8.52;4.13;;;14.20;92.70;;;;;;4966596;28;20050;-81
2023/04/27 15:20:58;;;;;;;7.55;4.18;;;14.10;92.70;;;;;;4994462;28;20180;-78
2023/04/27 15:23:25;;;;;;;8.60;4.05;;;14.10;92.80;;;;;;4977191;28;20054;-79
2023/04/27 15:25:54;;;;;;;7.78;4.15;;;14.10;93.00;;;;;;4976868;28;20130;-80
2023/04/27 15:28:20;;;;;;;7.75;4.30;;;14.10;92.90;;;;;;4994674;28;20030;-79
2023/04/27 15:30:47;;;;;;;9.70;4.50;;;14.10;93.20;;;;;;4977710;28;20047;-80
2023/04/27 15:33:14;;;;;;;11.23;4.35;;;14.10;93.20;;;;;;4976913;28;20065;-81
2023/04/27 15:35:40;;;;;;;7.70;4.07;;;14.00;93.30;;;;;;4977099;28;20074;-81
2023/04/27 15:38:07;;;;;;;9.35;4.15;;;14.10;93.50;;;;;;4977739;28;20074;-81
2023/04/27 15:40:33;;;;;;;9.75;4.50;;;14.10;93.50;;;;;;4994332;28;20050;-79
2023/04/27 15:42:59;;;;;;;11.30;4.55;;;14.10;93.80;;;;;;4976986;28;20042;-81
2023/04/27 15:45:25;;;;;;;8.43;4.10;;;14.10;93.90;;;;;;4976595;28;20073;-80
2023/04/27 15:47:51;;;;;;;8.23;4.15;;;14.10;94.00;;;;;;4976685;28;20053;-79